Time;durP1;ratioP1;P1;durP2;ratioP2;P2;SDS_P1;SDS_P2;PMS_P1;PMS_P2;Temp;Humidity;BMP_temperature;BMP_pressure;BME280_temperature;BME280_humidity;BME280_pressure;Samples;Min_cycle;Max_cycle;Signal;HPM_P1;HPM_P2
2022/12/25 00:02:00;;;;;;;25.20;8.85;;;;;;;9.14;100.00;100549.28;5070256;28;20140;-73
2022/12/25 00:04:27;;;;;;;27.80;9.60;;;;;;;9.13;100.00;100547.56;5083819;28;20307;-73
2022/12/25 00:06:54;;;;;;;33.25;9.23;;;;;;;9.11;100.00;100536.22;5084695;28;20602;-73
2022/12/25 00:09:21;;;;;;;23.92;9.15;;;;;;;9.10;100.00;100527.44;5079044;28;20597;-74
2022/12/25 00:11:47;;;;;;;27.80;9.18;;;;;;;9.09;100.00;100528.34;5075116;28;20079;-71
2022/12/25 00:14:14;;;;;;;23.27;8.75;;;;;;;9.09;100.00;100520.44;5080086;28;20058;-72
2022/12/25 00:16:40;;;;;;;27.33;9.27;;;;;;;9.12;100.00;100511.53;5080191;28;20072;-73
2022/12/25 00:19:07;;;;;;;24.55;8.48;;;;;;;9.16;100.00;100505.19;5079398;28;20404;-72
2022/12/25 00:21:34;;;;;;;24.73;9.70;;;;;;;9.23;100.00;100503.16;5073305;28;20059;-73
2022/12/25 00:24:00;;;;;;;22.63;8.15;;;;;;;9.28;100.00;100496.78;5082928;28;20052;-73
2022/12/25 00:26:27;;;;;;;26.63;8.43;;;;;;;9.30;100.00;100494.91;5071029;28;20466;-72
2022/12/25 00:28:55;;;;;;;22.17;8.73;;;;;;;9.37;100.00;100499.06;5083098;28;20448;-73
2022/12/25 00:31:23;;;;;;;25.65;7.75;;;;;;;9.37;100.00;100490.25;5078156;28;20051;-72
2022/12/25 00:33:51;;;;;;;23.77;8.68;;;;;;;9.42;100.00;100502.38;5083604;28;20055;-71
2022/12/25 00:36:20;;;;;;;29.05;9.10;;;;;;;9.32;100.00;100482.50;5082473;28;20036;-72
2022/12/25 00:38:46;;;;;;;24.48;8.52;;;;;;;9.29;100.00;100484.41;5085395;28;20043;-71
2022/12/25 00:41:15;;;;;;;23.00;8.30;;;;;;;9.37;100.00;100498.19;5080973;28;20048;-72
2022/12/25 00:43:42;;;;;;;28.35;8.32;;;;;;;9.38;100.00;100495.50;5086833;28;20070;-72
2022/12/25 00:46:11;;;;;;;27.70;8.68;;;;;;;9.34;100.00;100496.53;5080730;28;20048;-72
2022/12/25 00:48:39;;;;;;;24.95;9.55;;;;;;;9.36;100.00;100510.53;5086654;28;20084;-73
2022/12/25 00:51:10;;;;;;;26.33;8.80;;;;;;;9.33;100.00;100521.22;5082087;28;20519;-72
2022/12/25 00:53:36;;;;;;;28.70;8.68;;;;;;;9.28;100.00;100519.72;5075714;28;20105;-71
2022/12/25 00:56:05;;;;;;;25.63;8.60;;;;;;;9.12;100.00;100493.03;5082325;28;20460;-72
2022/12/25 00:58:33;;;;;;;30.35;9.80;;;;;;;9.29;100.00;100518.75;5075393;28;20048;-72
2022/12/25 01:01:00;;;;;;;25.30;9.50;;;;;;;9.28;100.00;100510.00;5072423;28;20098;-71
2022/12/25 01:03:27;;;;;;;25.60;9.02;;;;;;;9.25;100.00;100504.84;5080794;28;20067;-71
2022/12/25 01:05:56;;;;;;;21.55;8.35;;;;;;;9.15;100.00;100484.97;5089723;28;20438;-71
2022/12/25 01:08:23;;;;;;;27.13;8.77;;;;;;;9.30;100.00;100497.56;5082368;28;20511;-73
2022/12/25 01:10:57;;;;;;;22.42;8.50;;;;;;;9.29;100.00;100498.47;5092215;28;20486;-73
2022/12/25 01:13:24;;;;;;;20.95;8.40;;;;;;;9.27;100.00;100499.50;5078019;28;20059;-72
2022/12/25 01:15:51;;;;;;;25.70;9.35;;;;;;;9.23;100.00;100504.03;5087947;28;20062;-71
2022/12/25 01:18:19;;;;;;;28.08;8.88;;;;;;;9.22;100.00;100506.72;5079809;28;20063;-73
2022/12/25 01:20:45;;;;;;;24.42;9.30;;;;;;;9.20;100.00;100508.56;5086299;28;20132;-72
2022/12/25 01:23:13;;;;;;;27.27;8.88;;;;;;;9.15;100.00;100517.53;5083452;28;20048;-71
2022/12/25 01:25:40;;;;;;;22.70;9.48;;;;;;;9.15;100.00;100522.81;5086040;28;20132;-72
2022/12/25 01:28:07;;;;;;;29.98;10.23;;;;;;;9.11;100.00;100515.09;5080411;28;20044;-72
2022/12/25 01:30:34;;;;;;;21.48;8.93;;;;;;;9.15;100.00;100529.88;5086064;28;20126;-71
2022/12/25 01:33:00;;;;;;;22.13;8.93;;;;;;;9.18;100.00;100542.97;5083346;28;20072;-71
2022/12/25 01:35:27;;;;;;;19.73;9.20;;;;;;;9.21;100.00;100536.72;5084683;28;20048;-71
2022/12/25 01:37:54;;;;;;;20.85;8.80;;;;;;;9.28;100.00;100528.50;5089102;28;20080;-71
2022/12/25 01:40:20;;;;;;;21.73;8.80;;;;;;;9.34;100.00;100530.03;5089656;28;20135;-71
2022/12/25 01:42:47;;;;;;;18.02;7.88;;;;;;;9.35;100.00;100518.53;5080908;28;20071;-71
2022/12/25 01:45:37;;;;;;;17.67;8.27;;;;;;;9.30;100.00;100518.69;5088417;28;20044;-72
2022/12/25 01:48:08;;;;;;;21.02;9.43;;;;;;;9.24;100.00;100531.31;5085622;28;20438;-71
2022/12/25 01:50:39;;;;;;;24.45;9.48;;;;;;;9.14;100.00;100529.00;5090894;28;20547;-71
2022/12/25 01:53:06;;;;;;;26.27;9.57;;;;;;;9.10;100.00;100535.38;5082587;28;20055;-71
2022/12/25 01:55:35;;;;;;;20.08;8.52;;;;;;;8.99;100.00;100505.84;5087330;28;20087;-71
2022/12/25 01:58:02;;;;;;;19.33;9.70;;;;;;;9.05;100.00;100517.97;5083173;28;20048;-71
2022/12/25 02:00:28;;;;;;;21.48;9.02;;;;;;;8.97;100.00;100517.41;5073524;28;20117;-71
2022/12/25 02:02:56;;;;;;;19.58;8.52;;;;;;;8.98;100.00;100513.81;5084640;28;20059;-71
2022/12/25 02:05:30;;;;;;;18.77;8.98;;;;;;;8.99;100.00;100508.47;5089815;28;20046;-71
2022/12/25 02:08:01;;;;;;;22.52;8.98;;;;;;;9.03;100.00;100514.50;5087500;28;20064;-71
2022/12/25 02:10:27;;;;;;;;;;;;;;;9.01;100.00;100514.56;5086576;28;20082;-71
2022/12/25 02:12:54;;;;;;;21.40;8.75;;;;;;;8.99;100.00;100513.75;5081035;28;19920;-71
2022/12/25 02:15:27;;;;;;;20.02;9.05;;;;;;;8.96;100.00;100515.69;5089858;28;20476;-71
2022/12/25 02:18:00;;;;;;;26.00;9.20;;;;;;;8.96;100.00;100518.31;5086236;28;20127;-71
2022/12/25 02:20:55;;;;;;;18.52;9.05;;;;;;;8.81;100.00;100484.59;5080199;28;20040;-71
2022/12/25 02:23:40;;;;;;;21.80;9.52;;;;;;;8.95;100.00;100508.69;5084884;28;20127;-71
2022/12/25 02:26:54;;;;;;;19.63;8.90;;;;;;;8.94;100.00;100506.94;5083160;28;20044;-71
2022/12/25 02:29:41;;;;;;;23.00;9.05;;;;;;;8.87;100.00;100494.88;5078814;28;20044;-70
2022/12/25 02:32:26;;;;;;;23.30;9.60;;;;;;;8.88;100.00;100501.91;5090612;28;20119;-71
2022/12/25 02:35:02;;;;;;;19.02;9.45;;;;;;;8.80;100.00;100496.91;5086027;28;20618;-71
2022/12/25 02:37:38;;;;;;;21.13;9.60;;;;;;;8.75;100.00;100494.44;5082672;28;20044;-71
2022/12/25 02:40:14;;;;;;;21.77;9.52;;;;;;;8.87;100.00;100508.09;5086867;28;20044;-71
2022/12/25 03:08:52;;;;;;;18.75;9.02;;;;;;;8.99;100.00;100481.19;5087080;28;20074;-73
2022/12/25 03:11:30;;;;;;;18.92;9.25;;;;;;;8.97;100.00;100483.06;5086174;28;20376;-72
2022/12/25 03:16:55;;;;;;;18.60;9.50;;;;;;;8.89;100.00;100493.06;5081033;28;20048;-73
2022/12/25 03:27:51;;;;;;;20.60;8.82;;;;;;;8.79;100.00;100496.06;5082343;28;20072;-73
2022/12/25 03:33:31;;;;;;;17.60;8.90;;;;;;;8.89;100.00;100514.19;5090816;28;20044;-73
2022/12/25 03:36:30;;;;;;;23.95;9.27;;;;;;;8.87;100.00;100505.44;5079254;28;20048;-71
2022/12/25 03:48:07;;;;;;;20.55;9.68;;;;;;;8.78;100.00;100470.56;5084134;28;20062;-71
2022/12/25 04:37:41;;;;;;;24.60;9.98;;;;;;;8.66;100.00;100434.06;5085368;28;20180;-73
2022/12/25 04:40:08;;;;;;;23.17;9.52;;;;;;;8.80;100.00;100465.25;5083652;28;20047;-72
2022/12/25 04:42:34;;;;;;;18.20;9.48;;;;;;;8.81;100.00;100459.03;5081833;28;20066;-72
2022/12/25 04:45:01;;;;;;;18.38;9.07;;;;;;;8.84;100.00;100455.38;5085473;28;20059;-73
2022/12/25 04:47:27;;;;;;;21.30;9.90;;;;;;;8.82;100.00;100455.44;5083682;28;20074;-74
2022/12/25 04:49:54;;;;;;;17.65;9.73;;;;;;;8.79;100.00;100451.19;5082220;28;20044;-72
2022/12/25 04:52:20;;;;;;;20.63;9.48;;;;;;;8.83;100.00;100457.16;5078869;28;20111;-72
2022/12/25 04:54:47;;;;;;;17.65;9.35;;;;;;;8.83;100.00;100461.59;5085889;28;20032;-72
2022/12/25 04:57:15;;;;;;;18.58;9.02;;;;;;;8.83;100.00;100458.94;5081770;28;20119;-73
2022/12/25 04:59:41;;;;;;;21.65;9.68;;;;;;;8.87;100.00;100455.28;5086843;28;20052;-71
2022/12/25 05:02:08;;;;;;;19.05;8.70;;;;;;;8.75;100.00;100439.00;5086890;28;20066;-72
2022/12/25 05:04:35;;;;;;;17.00;9.15;;;;;;;8.85;100.00;100454.47;5084316;28;20511;-71
2022/12/25 05:07:01;;;;;;;18.83;8.80;;;;;;;8.73;100.00;100424.13;5087710;28;20048;-71
2022/12/25 05:09:28;;;;;;;19.83;8.48;;;;;;;8.89;100.00;100448.16;5087358;28;20151;-71
2022/12/25 05:11:55;;;;;;;16.98;8.93;;;;;;;8.87;100.00;100452.63;5082800;28;20052;-72
2022/12/25 05:14:21;;;;;;;16.48;8.10;;;;;;;8.81;100.00;100442.34;5088762;28;20044;-71
2022/12/25 05:16:48;;;;;;;20.60;8.82;;;;;;;8.87;100.00;100457.91;5081819;28;20040;-72
2022/12/25 05:19:14;;;;;;;19.70;8.48;;;;;;;8.84;100.00;100456.25;5088517;28;20427;-71
2022/12/25 05:21:41;;;;;;;20.73;7.55;;;;;;;8.86;100.00;100466.75;5080109;28;20040;-72
2022/12/25 05:24:07;;;;;;;20.45;7.88;;;;;;;8.85;100.00;100472.97;5087887;28;20050;-71
2022/12/25 05:26:34;;;;;;;16.15;7.38;;;;;;;8.85;100.00;100465.91;5083129;28;20147;-72
2022/12/25 05:29:00;;;;;;;14.63;7.22;;;;;;;8.85;100.00;100462.41;5083782;28;20067;-72
2022/12/25 05:31:27;;;;;;;17.05;7.40;;;;;;;8.85;100.00;100455.34;5083644;28;20452;-72
2022/12/25 05:33:54;;;;;;;15.10;6.97;;;;;;;8.88;100.00;100460.50;5088369;28;20101;-71
2022/12/25 05:36:20;;;;;;;16.60;7.13;;;;;;;8.93;100.00;100463.84;5085967;28;20047;-73
2022/12/25 05:38:47;;;;;;;18.35;7.10;;;;;;;8.96;100.00;100457.56;5085533;28;20047;-71
2022/12/25 05:41:14;;;;;;;12.30;6.38;;;;;;;8.99;100.00;100453.00;5076134;28;20059;-74
2022/12/25 05:43:40;;;;;;;13.00;6.32;;;;;;;9.02;100.00;100454.69;5081471;28;20483;-71
2022/12/25 05:46:09;;;;;;;13.10;6.43;;;;;;;9.03;100.00;100453.75;5084376;28;20041;-71
2022/12/25 05:48:37;;;;;;;14.38;6.50;;;;;;;9.00;100.00;100451.22;5083324;28;20458;-72
2022/12/25 05:51:07;;;;;;;16.10;7.07;;;;;;;8.97;100.00;100448.75;5083013;28;20044;-72
2022/12/25 05:53:35;;;;;;;15.50;6.97;;;;;;;8.99;100.00;100449.50;5079382;27;20067;-72
2022/12/25 05:56:04;;;;;;;18.05;6.55;;;;;;;8.93;100.00;100436.56;5082316;28;20059;-71
2022/12/25 05:58:33;;;;;;;14.23;5.93;;;;;;;8.95;100.00;100440.00;5083002;28;20068;-72
2022/12/25 06:01:00;;;;;;;16.77;6.85;;;;;;;8.88;100.00;100434.09;5084874;28;20127;-73
2022/12/25 06:03:27;;;;;;;12.00;6.15;;;;;;;8.99;100.00;100436.31;5082505;28;20078;-72
2022/12/25 06:05:53;;;;;;;14.05;6.00;;;;;;;9.03;100.00;100440.56;5081619;28;20131;-72
2022/12/25 06:08:20;;;;;;;16.58;6.25;;;;;;;9.04;100.00;100439.63;5077264;28;20054;-72
2022/12/25 06:10:47;;;;;;;14.43;6.22;;;;;;;9.03;100.00;100437.91;5082040;28;20080;-72
2022/12/25 06:13:13;;;;;;;11.65;6.25;;;;;;;9.02;100.00;100439.69;5080582;28;20036;-72
2022/12/25 06:15:40;;;;;;;21.73;6.75;;;;;;;8.98;100.00;100434.56;5081130;28;20095;-72
2022/12/25 06:18:07;;;;;;;16.30;6.65;;;;;;;8.93;100.00;100440.06;5084620;28;20062;-72
2022/12/25 06:20:35;;;;;;;10.32;5.95;;;;;;;8.91;100.00;100433.13;5088731;28;20044;-72
2022/12/25 06:23:01;;;;;;;13.15;7.03;;;;;;;8.88;100.00;100430.59;5085167;28;20066;-72
2022/12/25 06:25:28;;;;;;;12.98;6.70;;;;;;;8.70;100.00;100401.34;5087627;28;20058;-73
2022/12/25 06:27:54;;;;;;;15.90;7.25;;;;;;;8.82;100.00;100422.91;5081601;28;20047;-71
2022/12/25 06:30:21;;;;;;;15.32;6.18;;;;;;;8.79;100.00;100419.50;5075132;28;20555;-72
2022/12/25 06:32:48;;;;;;;12.57;6.70;;;;;;;8.65;100.00;100384.84;5084494;28;20056;-71
2022/12/25 06:35:14;;;;;;;13.50;6.57;;;;;;;8.83;100.00;100403.50;5083065;27;20509;-71
2022/12/25 06:37:41;;;;;;;19.98;7.28;;;;;;;8.87;100.00;100413.03;5083587;28;20144;-72
2022/12/25 06:40:07;;;;;;;23.30;7.57;;;;;;;8.76;100.00;100394.97;5085459;28;20036;-71
2022/12/25 06:42:34;;;;;;;18.60;7.28;;;;;;;8.82;100.00;100418.47;5088279;28;20048;-72
2022/12/25 06:45:01;;;;;;;20.02;7.38;;;;;;;8.77;100.00;100407.25;5084924;28;20496;-72
2022/12/25 06:47:27;;;;;;;17.77;7.10;;;;;;;8.79;100.00;100408.06;5082860;28;20044;-71
2022/12/25 06:49:54;;;;;;;19.63;6.90;;;;;;;8.78;100.00;100416.91;5079450;28;20036;-71
2022/12/25 06:52:20;;;;;;;16.75;6.85;;;;;;;8.69;100.00;100399.63;5083001;28;20043;-71
2022/12/25 06:54:47;;;;;;;13.50;6.80;;;;;;;8.81;100.00;100413.28;5082762;28;20067;-72
2022/12/25 06:57:13;;;;;;;18.88;6.47;;;;;;;8.78;100.00;100411.63;5083931;28;20052;-72
2022/12/25 06:59:40;;;;;;;16.23;7.05;;;;;;;8.82;100.00;100413.19;5078323;28;20073;-72
2022/12/25 07:02:15;;;;;;;16.55;7.00;;;;;;;8.66;100.00;100386.53;5076188;28;20036;-71
2022/12/25 07:04:42;;;;;;;13.30;6.32;;;;;;;8.83;100.00;100416.69;5083487;28;20052;-73
2022/12/25 07:07:09;;;;;;;16.85;6.13;;;;;;;8.79;100.00;100408.06;5086501;28;20493;-71
2022/12/25 07:09:37;;;;;;;12.93;6.07;;;;;;;8.78;100.00;100415.13;5081913;28;20048;-73
2022/12/25 07:12:22;;;;;;;20.25;6.32;;;;;;;8.78;100.00;100430.97;5080422;28;20048;-72
2022/12/25 07:14:49;;;;;;;12.88;5.93;;;;;;;8.76;100.00;100418.75;5085077;28;20059;-72
2022/12/25 07:17:16;;;;;;;15.68;5.85;;;;;;;8.76;100.00;100416.97;5084904;28;20509;-72
2022/12/25 07:19:42;;;;;;;13.20;6.20;;;;;;;8.79;100.00;100414.22;5082619;28;20082;-73
2022/12/25 07:22:11;;;;;;;12.40;6.68;;;;;;;8.85;100.00;100422.78;5084211;28;20044;-72
2022/12/25 07:24:38;;;;;;;11.07;5.68;;;;;;;8.75;100.00;100417.03;5075846;28;20455;-73
2022/12/25 07:27:05;;;;;;;17.63;6.05;;;;;;;8.77;100.00;100421.31;5077888;28;20510;-72
2022/12/25 07:29:31;;;;;;;15.02;6.35;;;;;;;8.72;100.00;100412.72;5086277;28;20048;-71
2022/12/25 07:31:58;;;;;;;15.75;6.53;;;;;;;8.73;100.00;100416.22;5081061;28;20136;-71
2022/12/25 07:34:25;;;;;;;19.55;6.75;;;;;;;8.72;100.00;100411.84;5079935;28;20479;-72
2022/12/25 07:36:53;;;;;;;11.23;5.90;;;;;;;8.72;100.00;100407.44;5087247;28;20079;-72
2022/12/25 07:39:20;;;;;;;12.02;5.43;;;;;;;8.73;100.00;100403.88;5084333;28;20073;-72
2022/12/25 07:41:46;;;;;;;12.65;5.05;;;;;;;8.74;100.00;100395.03;5085466;28;20071;-72
2022/12/25 07:44:13;;;;;;;14.32;6.40;;;;;;;8.66;100.00;100378.63;5083795;28;20040;-72
2022/12/25 07:46:40;;;;;;;15.55;5.80;;;;;;;8.80;100.00;100393.94;5085659;28;20143;-72
2022/12/25 07:49:06;;;;;;;9.65;5.32;;;;;;;8.87;100.00;100400.69;5079013;28;20055;-72
2022/12/25 07:51:33;;;;;;;14.85;6.03;;;;;;;9.00;100.00;100393.13;5082040;28;20505;-71
2022/12/25 07:54:00;;;;;;;11.40;5.70;;;;;;;9.07;100.00;100397.25;5082574;28;20051;-72
2022/12/25 07:56:28;;;;;;;8.48;5.32;;;;;;;9.09;100.00;100411.25;5080929;28;20146;-73
2022/12/25 07:58:55;;;;;;;7.95;4.40;;;;;;;9.19;100.00;100409.94;5084594;28;20396;-72
2022/12/25 08:01:25;;;;;;;11.45;5.40;;;;;;;9.06;100.00;100375.25;5083234;28;20039;-72
2022/12/25 08:03:55;;;;;;;7.85;4.35;;;;;;;9.10;100.00;100382.13;5081923;28;20060;-71
2022/12/25 08:06:25;;;;;;;10.30;4.72;;;;;;;9.27;100.00;100393.78;5083168;28;20484;-72
2022/12/25 08:08:52;;;;;;;12.07;4.90;;;;;;;9.25;100.00;100393.84;5088563;28;20559;-73
2022/12/25 08:11:18;;;;;;;11.05;4.47;;;;;;;9.28;100.00;100411.38;5081477;28;20055;-73
2022/12/25 08:13:45;;;;;;;9.30;4.25;;;;;;;9.24;100.00;100400.06;5087853;28;20052;-73
2022/12/25 08:16:11;;;;;;;9.93;4.50;;;;;;;9.27;100.00;100388.50;5083363;28;20516;-73
2022/12/25 08:18:39;;;;;;;8.32;3.97;;;;;;;9.31;100.00;100372.44;5079569;28;20131;-73
2022/12/25 08:21:11;;;;;;;8.65;4.22;;;;;;;9.36;100.00;100367.84;5077473;28;20432;-72
2022/12/25 08:23:40;;;;;;;11.55;4.90;;;;;;;9.43;100.00;100349.94;5078619;28;20139;-73
2022/12/25 08:26:10;;;;;;;10.55;4.40;;;;;;;9.32;100.00;100329.25;5079172;28;20130;-72
2022/12/25 08:28:37;;;;;;;7.28;4.35;;;;;;;9.46;100.00;100336.56;5086011;28;20061;-72
2022/12/25 08:31:16;;;;;;;11.02;4.70;;;;;;;9.52;100.00;100340.75;5089150;28;20048;-72
2022/12/25 08:33:43;;;;;;;10.25;4.45;;;;;;;9.55;100.00;100351.19;5085706;28;20063;-72
2022/12/25 08:36:11;;;;;;;9.80;4.72;;;;;;;9.54;100.00;100370.63;5079824;28;20511;-73
2022/12/25 08:38:38;;;;;;;10.95;4.45;;;;;;;9.53;100.00;100369.75;5085454;28;20048;-73
2022/12/25 08:41:06;;;;;;;11.70;4.97;;;;;;;9.53;100.00;100384.75;5084345;28;20059;-72
2022/12/25 08:43:32;;;;;;;12.38;4.63;;;;;;;9.43;100.00;100381.66;5084592;28;20514;-72
2022/12/25 08:45:59;;;;;;;7.90;4.25;;;;;;;9.40;100.00;100372.06;5086061;28;20123;-73
2022/12/25 08:48:26;;;;;;;11.73;5.03;;;;;;;9.38;100.00;100355.41;5081534;28;20052;-73
2022/12/25 08:50:53;;;;;;;11.88;4.68;;;;;;;9.40;100.00;100343.00;5082037;28;20062;-73
2022/12/25 08:53:20;;;;;;;11.57;4.90;;;;;;;9.41;100.00;100328.00;5082414;28;20051;-72
2022/12/25 08:55:47;;;;;;;8.90;5.20;;;;;;;9.43;100.00;100334.09;5090174;28;20040;-72
2022/12/25 08:58:15;;;;;;;11.00;5.55;;;;;;;9.42;100.00;100343.78;5083497;28;20127;-72
2022/12/25 09:00:41;;;;;;;10.98;5.38;;;;;;;9.42;100.00;100357.00;5089867;28;20097;-72
2022/12/25 09:03:08;;;;;;;12.88;5.07;;;;;;;9.31;100.00;100351.31;5077753;28;20047;-73
2022/12/25 09:05:36;;;;;;;9.10;4.50;;;;;;;9.41;100.00;100362.38;5077750;28;20096;-72
2022/12/25 09:08:03;;;;;;;10.00;4.40;;;;;;;9.39;100.00;100372.13;5084655;28;20040;-72
2022/12/25 09:10:29;;;;;;;11.40;4.28;;;;;;;9.41;100.00;100389.66;5084049;28;20547;-72
2022/12/25 09:12:56;;;;;;;10.60;4.32;;;;;;;9.44;100.00;100386.03;5081903;28;20127;-73
2022/12/25 09:15:23;;;;;;;9.88;4.93;;;;;;;9.47;100.00;100385.88;5077463;28;20037;-72
2022/12/25 09:17:50;;;;;;;11.27;4.55;;;;;;;9.49;100.00;100395.47;5087843;28;20044;-74
2022/12/25 09:20:16;;;;;;;12.48;4.93;;;;;;;9.53;100.00;100398.84;5081293;28;20048;-72
2022/12/25 09:22:43;;;;;;;12.57;5.60;;;;;;;9.51;100.00;100392.75;5082689;28;20454;-72
2022/12/25 09:25:10;;;;;;;12.13;5.13;;;;;;;9.45;100.00;100380.63;5085599;28;20044;-72
2022/12/25 09:27:36;;;;;;;15.00;5.82;;;;;;;9.41;100.00;100378.22;5082066;28;20866;-72
2022/12/25 09:30:04;;;;;;;13.88;6.75;;;;;;;9.24;100.00;100360.44;5084591;28;20419;-74
2022/12/25 09:32:31;;;;;;;13.25;6.85;;;;;;;9.34;100.00;100374.97;5082962;28;20456;-71
2022/12/25 09:34:58;;;;;;;14.35;7.20;;;;;;;9.36;100.00;100373.13;5085699;28;20056;-73
2022/12/25 09:37:24;;;;;;;14.38;6.90;;;;;;;9.29;100.00;100360.22;5084336;28;20060;-73
2022/12/25 09:39:51;;;;;;;12.13;6.78;;;;;;;9.34;100.00;100369.69;5083439;28;21026;-72
2022/12/25 09:42:33;;;;;;;12.20;6.22;;;;;;;9.38;100.00;100373.06;5080720;28;20567;-72
2022/12/25 09:45:08;;;;;;;9.82;5.65;;;;;;;9.39;100.00;100375.63;5082793;28;20043;-72
2022/12/25 09:47:38;;;;;;;10.00;5.85;;;;;;;9.42;100.00;100369.38;5086273;28;20761;-73
2022/12/25 09:50:16;;;;;;;7.97;5.63;;;;;;;9.44;100.00;100360.41;5078814;28;20059;-73
2022/12/25 09:52:59;;;;;;;11.80;5.53;;;;;;;9.50;100.00;100354.88;5082576;28;20044;-73
2022/12/25 09:55:30;;;;;;;11.48;5.65;;;;;;;9.55;100.00;100356.47;5077295;28;20048;-73
2022/12/25 09:58:01;;;;;;;9.50;5.60;;;;;;;9.59;100.00;100358.06;5082566;28;20056;-72
2022/12/25 10:00:41;;;;;;;10.30;4.55;;;;;;;9.64;100.00;100356.94;5085384;28;20515;-73
2022/12/25 10:03:26;;;;;;;;;;;;;;;9.68;100.00;100350.59;5080749;28;20589;-73
2022/12/25 10:06:12;;;;;;;7.53;4.57;;;;;;;9.75;100.00;100332.69;5085561;28;19935;-73
2022/12/25 10:09:14;;;;;;;8.23;4.43;;;;;;;9.85;100.00;100326.91;5083741;28;20080;-72
2022/12/25 10:11:47;;;;;;;7.03;4.38;;;;;;;9.96;100.00;100304.38;5069609;28;20075;-73
2022/12/25 10:14:41;;;;;;;5.28;3.63;;;;;;;10.09;100.00;100303.75;5073625;28;20066;-72
2022/12/25 10:17:35;;;;;;;7.65;3.67;;;;;;;10.18;100.00;100290.13;5077951;28;20051;-73
2022/12/25 10:20:11;;;;;;;7.85;4.20;;;;;;;10.24;100.00;100282.81;5078324;28;20055;-73
2022/12/25 10:22:45;;;;;;;7.28;3.63;;;;;;;10.31;100.00;100274.53;5079245;28;20079;-73
2022/12/25 10:25:21;;;;;;;7.95;3.83;;;;;;;10.37;100.00;100268.09;5082491;28;20123;-74
2022/12/25 10:27:51;;;;;;;9.50;3.47;;;;;;;10.26;100.00;100254.50;5083554;28;20044;-72
2022/12/25 10:30:21;;;;;;;7.03;3.85;;;;;;;10.48;100.00;100292.25;5084687;28;20508;-72
2022/12/25 10:32:49;;;;;;;7.35;4.20;;;;;;;10.53;100.00;100295.53;5077720;28;20056;-72
2022/12/25 10:35:19;;;;;;;8.60;4.10;;;;;;;10.58;100.00;100311.19;5085387;28;20055;-72
2022/12/25 10:38:09;;;;;;;7.97;3.63;;;;;;;10.64;100.00;100303.81;5072185;28;20067;-72
2022/12/25 10:40:54;;;;;;;7.18;3.60;;;;;;;10.69;100.00;100296.50;5075487;28;20444;-71
2022/12/25 10:43:41;;;;;;;5.55;3.70;;;;;;;10.63;100.00;100286.22;5079719;28;20040;-73
2022/12/25 10:46:12;;;;;;;6.20;3.75;;;;;;;10.80;100.00;100288.88;5074810;28;20056;-72
2022/12/25 10:48:49;;;;;;;7.72;3.78;;;;;;;10.84;100.00;100271.06;5076713;28;20051;-73
2022/12/25 10:51:32;;;;;;;7.53;4.00;;;;;;;10.95;100.00;100271.38;5078001;28;20075;-73
2022/12/25 10:54:01;;;;;;;6.38;3.78;;;;;;;10.86;100.00;100254.13;5083627;28;20040;-72
2022/12/25 10:56:29;;;;;;;5.53;3.50;;;;;;;10.99;100.00;100272.94;5084288;28;20047;-73
2022/12/25 10:59:10;;;;;;;6.30;3.53;;;;;;;11.02;100.00;100269.28;5070044;28;20888;-72
2022/12/25 11:01:36;;;;;;;7.57;3.53;;;;;;;11.06;100.00;100262.88;5072148;28;20127;-72
2022/12/25 11:04:03;;;;;;;6.03;3.50;;;;;;;11.08;100.00;100272.47;5073391;28;22178;-72
2022/12/25 11:06:31;;;;;;;6.50;4.00;;;;;;;11.11;100.00;100261.69;5078428;28;20053;-72
2022/12/25 11:08:59;;;;;;;6.90;3.45;;;;;;;11.13;100.00;100257.19;5076670;28;20491;-71
2022/12/25 11:11:28;;;;;;;9.40;3.90;;;;;;;10.99;100.00;100243.78;5076469;28;20377;-74
2022/12/25 11:14:00;;;;;;;5.00;4.05;;;;;;;11.01;100.00;100270.22;5073958;28;20044;-73
2022/12/25 11:16:38;;;;;;;8.05;4.53;;;;;;;10.94;100.00;100266.13;5074507;28;20386;-73
2022/12/25 11:19:25;;;;;;;12.07;5.70;;;;;;;10.81;100.00;100247.38;5074134;28;20040;-72
2022/12/25 11:21:55;;;;;;;8.63;5.85;;;;;;;10.80;100.00;100251.81;5074228;28;20126;-74
2022/12/25 11:24:27;;;;;;;7.05;4.80;;;;;;;10.78;100.00;100253.66;5073286;28;20047;-73
2022/12/25 11:26:56;;;;;;;9.90;5.25;;;;;;;10.77;100.00;100249.31;5079977;28;20477;-74
2022/12/25 11:29:41;;;;;;;8.97;5.60;;;;;;;10.80;100.00;100249.16;5077557;28;20083;-73
2022/12/25 11:32:33;;;;;;;8.82;5.30;;;;;;;10.64;100.00;100229.66;5070611;28;20072;-73
2022/12/25 11:35:01;;;;;;;8.57;5.40;;;;;;;10.67;100.00;100249.84;5073661;28;20057;-72
2022/12/25 11:37:47;;;;;;;8.18;5.15;;;;;;;10.62;100.00;100242.13;5079783;28;20154;-72
2022/12/25 11:40:29;;;;;;;10.48;5.90;;;;;;;10.62;100.00;100246.56;5076899;28;20093;-75
2022/12/25 11:43:12;;;;;;;13.27;5.90;;;;;;;10.66;100.00;100241.03;5074690;28;20149;-72
2022/12/25 11:45:47;;;;;;;11.98;5.70;;;;;;;10.66;100.00;100237.53;5074912;28;20047;-73
2022/12/25 11:48:25;;;;;;;8.02;5.00;;;;;;;10.67;100.00;100234.81;5073027;28;20404;-72
2022/12/25 11:50:58;;;;;;;9.00;4.93;;;;;;;10.77;100.00;100225.47;5071129;28;20141;-72
2022/12/25 11:53:50;;;;;;;7.22;4.20;;;;;;;10.82;100.00;100218.16;5078772;28;20131;-73
2022/12/25 11:56:27;;;;;;;7.35;4.18;;;;;;;10.98;100.00;100214.72;5075715;28;20043;-73
2022/12/25 11:59:01;;;;;;;5.68;4.28;;;;;;;11.03;100.00;100217.97;5073841;28;20063;-73
2022/12/25 12:01:46;;;;;;;9.07;4.47;;;;;;;11.05;100.00;100206.34;5072162;28;20141;-73
2022/12/25 12:04:33;;;;;;;5.43;4.00;;;;;;;11.04;100.00;100194.03;5077573;28;20044;-72
2022/12/25 12:07:25;;;;;;;7.25;4.78;;;;;;;11.09;100.00;100183.22;5079872;28;20048;-74
2022/12/25 12:10:17;;;;;;;10.38;5.05;;;;;;;11.13;100.00;100179.47;5069985;28;20040;-73
2022/12/25 12:12:49;;;;;;;8.95;4.28;;;;;;;11.21;100.00;100167.50;5070984;28;20139;-74
2022/12/25 12:15:35;;;;;;;7.13;4.30;;;;;;;11.26;100.00;100135.47;5084575;28;20127;-72
2022/12/25 12:18:18;;;;;;;9.07;4.07;;;;;;;11.29;100.00;100132.66;5073052;28;20493;-74
2022/12/25 12:20:55;;;;;;;7.30;4.10;;;;;;;11.33;100.00;100146.63;5086641;28;20097;-72
2022/12/25 12:23:22;;;;;;;6.05;4.10;;;;;;;11.31;100.00;100152.00;5078209;28;20045;-72
2022/12/25 12:25:49;;;;;;;6.35;3.97;;;;;;;11.35;100.00;100148.22;5076851;28;20404;-73
2022/12/25 12:28:25;;;;;;;6.28;4.13;;;;;;;11.27;100.00;100149.59;5074510;28;20045;-72
2022/12/25 12:31:00;;;;;;;7.15;3.88;;;;;;;11.14;100.00;100152.03;5078747;28;20050;-72
2022/12/25 12:33:33;;;;;;;7.97;5.40;;;;;;;11.05;100.00;100155.16;5078483;28;20041;-72
2022/12/25 12:36:02;;;;;;;12.93;5.85;;;;;;;10.92;100.00;100162.91;5086514;28;20044;-72
2022/12/25 12:38:31;;;;;;;11.45;5.70;;;;;;;10.83;100.00;100160.75;5082766;28;20086;-72
2022/12/25 12:41:00;;;;;;;10.30;5.20;;;;;;;10.73;100.00;100123.25;5082157;27;20044;-72
2022/12/25 12:43:33;;;;;;;6.82;4.55;;;;;;;10.99;100.00;100148.41;5082459;28;20044;-73
2022/12/25 12:46:22;;;;;;;10.35;4.90;;;;;;;11.12;100.00;100138.00;5082890;28;20115;-72
2022/12/25 12:49:10;;;;;;;8.02;4.72;;;;;;;11.14;100.00;100141.44;5077320;28;20044;-72
2022/12/25 12:51:39;;;;;;;6.68;4.47;;;;;;;11.03;100.00;100152.59;5076146;28;20094;-72
2022/12/25 12:54:22;;;;;;;9.57;5.00;;;;;;;10.93;100.00;100155.81;5081781;28;20496;-72
2022/12/25 12:57:03;;;;;;;6.82;4.85;;;;;;;10.90;100.00;100160.31;5079878;28;20143;-74
2022/12/25 12:59:38;;;;;;;9.05;4.32;;;;;;;10.93;100.00;100158.47;5079845;28;20644;-72
2022/12/25 13:02:36;;;;;;;8.50;4.90;;;;;;;11.02;100.00;100148.22;5078924;28;20063;-73
2022/12/25 13:05:12;;;;;;;8.77;5.00;;;;;;;11.13;100.00;100142.38;5079040;28;20511;-71
2022/12/25 13:08:01;;;;;;;10.55;4.75;;;;;;;11.23;100.00;100147.09;5071013;28;20056;-73
2022/12/25 13:10:32;;;;;;;6.65;4.60;;;;;;;11.22;100.00;100116.22;5075873;28;20043;-72
2022/12/25 13:13:04;;;;;;;8.48;4.47;;;;;;;11.31;100.00;100121.97;5071636;28;20044;-73